createdAt,value
2022-09-06T00:00:57.872Z,26.08
2022-09-06T00:03:24.921Z,26.07
2022-09-06T00:05:51.574Z,26.04
2022-09-06T00:08:18.120Z,26.03
2022-09-06T00:10:44.746Z,26.01
2022-09-06T00:13:11.740Z,25.99
2022-09-06T00:15:38.359Z,25.99
2022-09-06T00:18:07.109Z,25.98
2022-09-06T00:20:34.799Z,25.97
2022-09-06T00:23:04.024Z,25.96
2022-09-06T00:25:31.146Z,25.95
2022-09-06T00:28:00.116Z,25.93
2022-09-06T00:30:27.494Z,25.90
2022-09-06T00:32:54.726Z,25.88
2022-09-06T00:35:24.688Z,25.85
2022-09-06T00:37:55.888Z,25.82
2022-09-06T00:40:22.491Z,25.78
2022-09-06T00:42:49.211Z,25.75
2022-09-06T00:45:15.747Z,25.73
2022-09-06T00:47:43.793Z,25.70
2022-09-06T00:50:14.347Z,25.66
2022-09-06T00:52:42.203Z,25.62
2022-09-06T00:55:09.550Z,25.59
2022-09-06T00:57:36.272Z,25.55
2022-09-06T01:00:05.368Z,25.53
2022-09-06T01:02:32.064Z,25.50
2022-09-06T01:04:58.973Z,25.48
2022-09-06T01:07:37.488Z,25.47
2022-09-06T01:10:41.283Z,25.47
2022-09-06T01:13:13.755Z,25.43
2022-09-06T01:15:57.025Z,25.42
2022-09-06T01:18:58.464Z,25.42
2022-09-06T01:21:49.673Z,25.40
2022-09-06T01:24:43.434Z,25.38
2022-09-06T01:27:48.474Z,25.36
2022-09-06T01:30:18.778Z,25.36
2022-09-06T01:33:02.147Z,25.34
2022-09-06T01:35:48.038Z,25.31
2022-09-06T01:38:15.683Z,25.30
2022-09-06T01:40:42.219Z,25.29
2022-09-06T01:43:13.074Z,25.29
2022-09-06T01:45:48.399Z,25.27
2022-09-06T01:48:25.991Z,25.26
2022-09-06T01:51:05.246Z,25.25
2022-09-06T01:53:47.166Z,25.23
2022-09-06T01:56:34.347Z,25.22
2022-09-06T01:59:31.005Z,25.22
2022-09-06T02:02:08.612Z,25.19
2022-09-06T02:04:40.165Z,25.16
2022-09-06T02:07:34.245Z,25.16
2022-09-06T02:10:16.462Z,25.14
2022-09-06T02:12:47.806Z,25.13
2022-09-06T02:15:23.607Z,25.12
2022-09-06T02:17:58.028Z,25.08
2022-09-06T02:20:30.807Z,25.07
2022-09-06T02:23:01.460Z,25.06
2022-09-06T02:25:34.013Z,25.04
2022-09-06T02:28:00.559Z,25.02
2022-09-06T02:30:27.086Z,24.99
2022-09-06T02:33:01.981Z,24.98
2022-09-06T02:35:28.750Z,24.95
2022-09-06T02:37:56.298Z,24.94
2022-09-06T02:40:22.966Z,24.93
2022-09-06T02:42:49.498Z,24.91
2022-09-06T02:45:16.110Z,24.89
2022-09-06T02:47:42.541Z,24.87
2022-09-06T02:50:09.175Z,24.85
2022-09-06T02:52:35.642Z,24.82
2022-09-06T02:55:02.129Z,24.80
2022-09-06T02:57:28.626Z,24.79
2022-09-06T02:59:55.042Z,24.77
2022-09-06T03:02:21.530Z,24.75
2022-09-06T03:04:48.147Z,24.72
2022-09-06T03:07:14.581Z,24.70
2022-09-06T03:09:41.608Z,24.68
2022-09-06T03:12:08.155Z,24.66
2022-09-06T03:14:36.135Z,24.63
2022-09-06T03:17:04.092Z,24.62
2022-09-06T03:19:30.593Z,24.59
2022-09-06T03:21:56.997Z,24.57
2022-09-06T03:24:23.626Z,24.53
2022-09-06T03:26:50.364Z,24.51
2022-09-06T03:29:16.866Z,24.50
2022-09-06T03:31:43.300Z,24.48
2022-09-06T03:34:11.254Z,24.47
2022-09-06T03:36:37.947Z,24.45
2022-09-06T03:39:04.378Z,24.45
2022-09-06T03:41:30.791Z,24.44
2022-09-06T03:43:57.249Z,24.43
2022-09-06T03:46:23.971Z,24.42
2022-09-06T03:48:50.455Z,24.41
2022-09-06T03:51:17.158Z,24.40
2022-09-06T03:53:43.605Z,24.40
2022-09-06T03:56:10.053Z,24.40
2022-09-06T03:58:36.510Z,24.37
2022-09-06T04:01:06.059Z,24.38
2022-09-06T04:03:33.438Z,24.37
2022-09-06T04:06:00.050Z,24.36
2022-09-06T04:08:26.952Z,24.36
2022-09-06T04:10:54.985Z,24.37
2022-09-06T04:13:23.236Z,24.35
2022-09-06T04:15:50.691Z,24.35
2022-09-06T04:18:17.457Z,24.34
2022-09-06T04:20:47.564Z,24.35
2022-09-06T04:23:14.022Z,24.34
2022-09-06T04:25:40.544Z,24.33
2022-09-06T04:28:07.070Z,24.32
2022-09-06T04:30:33.533Z,24.31
2022-09-06T04:32:59.954Z,24.31
2022-09-06T04:35:26.461Z,24.31
2022-09-06T04:37:52.942Z,24.29
2022-09-06T04:40:19.383Z,24.27
2022-09-06T04:42:45.817Z,24.26
2022-09-06T04:45:12.276Z,24.25
2022-09-06T04:47:38.748Z,24.23
2022-09-06T04:50:05.510Z,24.22
2022-09-06T04:52:31.957Z,24.21
2022-09-06T04:54:58.382Z,24.21
2022-09-06T04:57:24.938Z,24.19
2022-09-06T04:59:51.362Z,24.18
2022-09-06T05:02:17.853Z,24.18
2022-09-06T05:04:44.435Z,24.16
2022-09-06T05:07:10.893Z,24.15
2022-09-06T05:09:37.314Z,24.15
2022-09-06T05:12:04.223Z,24.15
2022-09-06T05:14:30.984Z,24.15
2022-09-06T05:16:57.571Z,24.15
2022-09-06T05:19:24.258Z,24.15
2022-09-06T05:21:51.595Z,24.16
2022-09-06T05:24:18.164Z,24.16
2022-09-06T05:26:44.601Z,24.16
2022-09-06T05:29:11.111Z,24.18
2022-09-06T05:31:37.577Z,24.19
2022-09-06T05:34:04.202Z,24.18
2022-09-06T05:36:31.274Z,24.18
2022-09-06T05:38:59.057Z,24.19
2022-09-06T05:41:26.249Z,24.19
2022-09-06T05:43:52.704Z,24.19
2022-09-06T05:46:19.236Z,24.19
2022-09-06T05:48:52.207Z,24.20
2022-09-06T05:51:18.717Z,24.17
2022-09-06T05:53:46.059Z,24.17
2022-09-06T05:56:14.558Z,24.16
2022-09-06T05:58:41.051Z,24.15
2022-09-06T06:01:23.526Z,24.15
2022-09-06T06:03:55.221Z,24.15
2022-09-06T06:06:24.249Z,24.13
2022-09-06T06:08:51.171Z,24.13
2022-09-06T06:11:17.648Z,24.12
2022-09-06T06:13:44.524Z,24.13
2022-09-06T06:16:14.114Z,24.13
2022-09-06T06:18:40.788Z,24.13
2022-09-06T06:21:19.167Z,24.15
2022-09-06T06:23:47.489Z,24.13
2022-09-06T06:26:14.046Z,24.12
2022-09-06T06:28:41.129Z,24.09
2022-09-06T06:31:10.617Z,24.07
2022-09-06T06:33:37.855Z,24.03
2022-09-06T06:36:23.301Z,23.99
2022-09-06T06:38:53.208Z,23.95
2022-09-06T06:41:23.902Z,23.94
2022-09-06T06:43:58.770Z,23.95
2022-09-06T06:46:27.665Z,23.94
2022-09-06T06:48:55.487Z,23.96
2022-09-06T06:51:25.003Z,24.01
2022-09-06T06:53:51.886Z,24.04
2022-09-06T06:56:31.109Z,24.10
2022-09-06T06:59:00.230Z,24.16
2022-09-06T07:01:29.616Z,24.20
2022-09-06T07:03:56.346Z,24.26
2022-09-06T07:09:10.232Z,24.34
2022-09-06T07:11:36.655Z,24.37
2022-09-06T07:14:03.162Z,24.39
2022-09-06T07:16:30.117Z,24.43
2022-09-06T07:18:56.643Z,24.44
2022-09-06T07:21:42.364Z,24.46
2022-09-06T07:24:09.479Z,24.50
2022-09-06T07:26:38.475Z,24.49
2022-09-06T07:29:06.649Z,24.48
2022-09-06T07:34:20.883Z,24.45
2022-09-06T07:36:48.198Z,24.45
2022-09-06T07:39:14.636Z,24.45
2022-09-06T07:41:41.175Z,24.47
2022-09-06T07:44:07.590Z,24.48
2022-09-06T07:46:34.052Z,24.50
2022-09-06T07:49:00.558Z,24.53
2022-09-06T07:51:26.974Z,24.55
2022-09-06T07:54:07.459Z,24.57
2022-09-06T07:56:42.358Z,24.60
2022-09-06T07:59:09.335Z,24.65
2022-09-06T08:01:37.433Z,24.69
2022-09-06T08:04:06.438Z,24.73
2022-09-06T08:09:22.350Z,24.86
2022-09-06T08:11:51.042Z,24.93
2022-09-06T08:14:17.497Z,25.03
2022-09-06T08:16:44.136Z,25.11
2022-09-06T08:19:12.301Z,25.20
2022-09-06T08:21:39.172Z,25.29
2022-09-06T08:24:07.309Z,25.37
2022-09-06T08:26:36.393Z,25.48
2022-09-06T08:29:06.768Z,25.57
2022-09-06T08:31:35.344Z,25.67
2022-09-06T08:34:02.411Z,25.76
2022-09-06T08:36:30.616Z,25.84
2022-09-06T08:39:04.883Z,25.96
2022-09-06T08:41:36.443Z,26.05
2022-09-06T08:47:10.742Z,26.24
2022-09-06T08:49:41.912Z,26.32
2022-09-06T08:52:26.457Z,26.40
2022-09-06T08:55:05.582Z,26.49
2022-09-06T08:57:50.733Z,26.53
2022-09-06T09:00:19.114Z,26.61
2022-09-06T09:02:49.236Z,26.69
2022-09-06T09:05:37.389Z,26.78
2022-09-06T09:08:32.279Z,26.86
2022-09-06T09:11:02.454Z,26.96
2022-09-06T09:13:38.894Z,27.04
2022-09-06T09:16:06.131Z,27.11
2022-09-06T09:18:38.514Z,27.19
2022-09-06T09:21:05.944Z,27.28
2022-09-06T09:23:32.711Z,27.36
2022-09-06T09:26:04.771Z,27.46
2022-09-06T09:28:31.724Z,27.54
2022-09-06T09:30:58.302Z,27.64
2022-09-06T09:33:32.791Z,27.73
2022-09-06T09:36:07.334Z,27.82
2022-09-06T09:38:41.317Z,27.93
2022-09-06T09:41:08.783Z,28.01
2022-09-06T09:43:39.251Z,28.10
2022-09-06T09:46:29.786Z,28.19
2022-09-06T09:49:10.284Z,28.28
2022-09-06T09:51:42.345Z,28.37
2022-09-06T09:54:11.725Z,28.43
2022-09-06T09:56:51.659Z,28.54
2022-09-06T09:59:20.882Z,28.59
2022-09-06T10:01:47.874Z,28.68
2022-09-06T10:07:14.208Z,28.86
2022-09-06T10:09:43.827Z,28.95
2022-09-06T10:12:17.795Z,29.03
2022-09-06T10:14:47.713Z,29.10
2022-09-06T10:17:27.150Z,29.18
2022-09-06T10:19:54.011Z,29.25
2022-09-06T10:22:30.979Z,29.30
2022-09-06T10:25:10.441Z,29.38
2022-09-06T10:27:55.656Z,29.42
2022-09-06T10:30:33.925Z,29.51
2022-09-06T10:33:08.035Z,29.57
2022-09-06T10:35:46.673Z,29.65
2022-09-06T10:38:36.519Z,29.74
2022-09-06T10:41:14.762Z,29.82
2022-09-06T10:44:01.359Z,29.91
2022-09-06T10:46:30.098Z,29.97
2022-09-06T10:48:56.787Z,30.04
2022-09-06T10:51:45.745Z,30.12
2022-09-06T10:54:20.768Z,30.20
2022-09-06T10:57:02.575Z,30.27
2022-09-06T11:02:28.165Z,30.35
2022-09-06T11:10:45.490Z,30.58
2022-09-06T11:13:17.707Z,30.69
2022-09-06T11:16:10.485Z,30.78
2022-09-06T11:18:47.161Z,30.87
2022-09-06T11:21:41.242Z,30.93
2022-09-06T11:24:28.178Z,31.01
2022-09-06T11:27:19.288Z,31.08
2022-09-06T11:29:56.268Z,31.15
2022-09-06T11:32:40.701Z,31.22
2022-09-06T11:35:11.050Z,31.28
2022-09-06T11:37:43.072Z,31.34
2022-09-06T11:40:27.277Z,31.41
2022-09-06T11:43:06.754Z,31.48
2022-09-06T11:45:43.443Z,31.56
2022-09-06T11:48:34.005Z,31.62
2022-09-06T11:51:02.239Z,31.67
2022-09-06T11:53:31.963Z,31.73
2022-09-06T11:55:58.375Z,31.76
2022-09-06T11:58:33.134Z,31.81
2022-09-06T12:01:16.537Z,31.87
2022-09-06T12:06:33.738Z,31.99
2022-09-06T12:09:00.395Z,32.03
2022-09-06T12:11:40.306Z,32.08
2022-09-06T12:14:19.770Z,32.09
2022-09-06T12:16:58.445Z,32.13
2022-09-06T12:19:46.960Z,32.17
2022-09-06T12:22:35.958Z,32.22
2022-09-06T12:25:17.889Z,32.28
2022-09-06T12:27:57.374Z,32.34
2022-09-06T12:30:51.003Z,32.40
2022-09-06T12:33:22.217Z,32.43
2022-09-06T12:35:57.398Z,32.44
2022-09-06T12:38:25.833Z,32.47
2022-09-06T12:40:58.241Z,32.50
2022-09-06T12:43:25.902Z,32.53
2022-09-06T12:45:52.657Z,32.57
2022-09-06T12:48:28.597Z,32.61
2022-09-06T12:51:19.481Z,32.64
2022-09-06T12:53:54.557Z,32.65
2022-09-06T12:56:23.095Z,32.66
2022-09-06T12:58:49.557Z,32.69
2022-09-06T13:01:29.572Z,32.72
2022-09-06T13:04:02.674Z,32.75
2022-09-06T13:06:33.733Z,32.78
2022-09-06T13:09:02.186Z,32.82
2022-09-06T13:11:34.746Z,32.86
2022-09-06T13:14:13.809Z,32.88
2022-09-06T13:16:46.961Z,32.94
2022-09-06T13:19:15.850Z,32.98
2022-09-06T13:21:44.733Z,33.02
2022-09-06T13:24:46.565Z,33.11
2022-09-06T13:27:28.445Z,33.18
2022-09-06T13:30:00.389Z,33.25
2022-09-06T13:32:28.051Z,33.28
2022-09-06T13:34:58.211Z,33.35
2022-09-06T13:37:27.556Z,33.39
2022-09-06T13:39:54.281Z,33.45
2022-09-06T13:42:28.708Z,33.50
2022-09-06T13:44:58.834Z,33.51
2022-09-06T13:47:29.658Z,33.52
2022-09-06T13:49:56.108Z,33.53
2022-09-06T13:52:22.997Z,33.52
2022-09-06T13:54:49.428Z,33.54
2022-09-06T13:57:19.991Z,33.58
2022-09-06T13:59:49.982Z,33.64
2022-09-06T14:02:17.784Z,33.68
2022-09-06T14:04:44.305Z,33.73
2022-09-06T14:07:10.985Z,33.76
2022-09-06T14:09:38.055Z,33.78
2022-09-06T14:12:06.650Z,33.79
2022-09-06T14:14:34.254Z,33.79
2022-09-06T14:17:00.813Z,33.77
2022-09-06T14:19:27.654Z,33.76
2022-09-06T14:21:54.088Z,33.75
2022-09-06T14:24:20.634Z,33.75
2022-09-06T14:26:47.218Z,33.77
2022-09-06T14:29:13.617Z,33.78
2022-09-06T14:31:40.353Z,33.80
2022-09-06T14:34:06.981Z,33.82
2022-09-06T14:36:34.551Z,33.86
2022-09-06T14:39:02.258Z,33.89
2022-09-06T14:41:28.866Z,33.93
2022-09-06T14:43:57.403Z,33.97
2022-09-06T14:46:26.044Z,33.99
2022-09-06T14:49:00.079Z,34.02
2022-09-06T14:51:27.214Z,34.00
2022-09-06T14:53:56.653Z,33.98
2022-09-06T14:56:23.957Z,33.93
2022-09-06T14:58:50.444Z,33.89
2022-09-06T15:01:16.856Z,33.84
2022-09-06T15:03:51.480Z,33.83
2022-09-06T15:06:20.584Z,33.80
2022-09-06T15:08:48.555Z,33.78
2022-09-06T15:11:27.367Z,33.75
2022-09-06T15:13:53.861Z,33.70
2022-09-06T15:16:20.283Z,33.67
2022-09-06T15:18:46.766Z,33.63
2022-09-06T15:21:15.685Z,33.60
2022-09-06T15:23:45.471Z,33.60
2022-09-06T15:26:13.766Z,33.58
2022-09-06T15:28:42.103Z,33.61
2022-09-06T15:31:09.187Z,33.62
2022-09-06T15:33:37.219Z,33.63
2022-09-06T15:36:08.784Z,33.64
2022-09-06T15:38:38.141Z,33.65
2022-09-06T15:41:08.168Z,33.64
2022-09-06T15:43:36.599Z,33.65
2022-09-06T15:46:03.322Z,33.66
2022-09-06T15:48:40.957Z,33.67
2022-09-06T15:51:07.505Z,33.66
2022-09-06T15:53:33.941Z,33.66
2022-09-06T15:56:02.609Z,33.66
2022-09-06T15:58:29.372Z,33.66
2022-09-06T16:01:01.832Z,33.71
2022-09-06T16:03:28.448Z,33.74
2022-09-06T16:08:49.668Z,33.82
2022-09-06T16:11:17.992Z,33.83
2022-09-06T16:13:45.413Z,33.82
2022-09-06T16:16:14.579Z,33.80
2022-09-06T16:18:43.364Z,33.76
2022-09-06T16:21:13.412Z,33.74
2022-09-06T16:23:41.949Z,33.75
2022-09-06T16:26:09.508Z,33.76
2022-09-06T16:28:37.443Z,33.78
2022-09-06T16:31:07.413Z,33.80
2022-09-06T16:33:36.048Z,33.81
2022-09-06T16:36:05.028Z,33.82
2022-09-06T16:38:32.851Z,33.84
2022-09-06T16:41:00.888Z,33.83
2022-09-06T16:43:28.553Z,33.80
2022-09-06T16:46:00.588Z,33.77
2022-09-06T16:48:28.315Z,33.71
2022-09-06T16:50:55.101Z,33.64
2022-09-06T16:53:22.555Z,33.56
2022-09-06T16:55:49.101Z,33.46
2022-09-06T16:58:15.811Z,33.36
2022-09-06T17:00:44.884Z,33.28
2022-09-06T17:03:15.173Z,33.20
2022-09-06T17:05:41.638Z,33.13
2022-09-06T17:08:08.387Z,33.06
2022-09-06T17:10:38.621Z,33.01
2022-09-06T17:13:05.072Z,32.94
2022-09-06T17:15:51.468Z,32.87
2022-09-06T17:18:17.917Z,32.77
2022-09-06T17:21:00.688Z,32.66
2022-09-06T17:23:28.160Z,32.52
2022-09-06T17:25:54.623Z,32.39
2022-09-06T17:28:21.087Z,32.23
2022-09-06T17:30:48.013Z,32.08
2022-09-06T17:33:17.031Z,31.93
2022-09-06T17:35:47.554Z,31.81
2022-09-06T17:38:16.248Z,31.67
2022-09-06T17:40:43.440Z,31.54
2022-09-06T17:43:10.007Z,31.41
2022-09-06T17:45:38.926Z,31.30
2022-09-06T17:48:05.484Z,31.19
2022-09-06T17:50:33.078Z,31.07
2022-09-06T17:53:00.085Z,30.94
2022-09-06T17:55:28.916Z,30.83
2022-09-06T17:57:56.330Z,30.72
2022-09-06T18:00:24.090Z,30.60
2022-09-06T18:02:50.845Z,30.51
2022-09-06T18:05:17.737Z,30.40
2022-09-06T18:07:44.654Z,30.31
2022-09-06T18:10:11.453Z,30.22
2022-09-06T18:12:38.423Z,30.10
2022-09-06T18:15:06.731Z,30.01
2022-09-06T18:17:33.233Z,29.92
2022-09-06T18:19:59.996Z,29.84
2022-09-06T18:22:26.522Z,29.74
2022-09-06T18:24:57.550Z,29.66
2022-09-06T18:27:24.932Z,29.58
2022-09-06T18:29:51.375Z,29.50
2022-09-06T18:32:17.882Z,29.41
2022-09-06T18:34:44.828Z,29.32
2022-09-06T18:37:11.872Z,29.24
2022-09-06T18:39:39.595Z,29.15
2022-09-06T18:42:11.094Z,29.05
2022-09-06T18:44:38.772Z,28.99
2022-09-06T18:47:07.990Z,28.89
2022-09-06T18:49:35.294Z,28.81
2022-09-06T18:52:06.231Z,28.74
2022-09-06T18:54:32.856Z,28.65
2022-09-06T18:56:59.949Z,28.58
2022-09-06T18:59:26.995Z,28.50
2022-09-06T19:01:54.006Z,28.42
2022-09-06T19:04:20.565Z,28.34
2022-09-06T19:06:47.088Z,28.27
2022-09-06T19:09:16.164Z,28.21
2022-09-06T19:11:45.512Z,28.13
2022-09-06T19:14:12.944Z,28.07
2022-09-06T19:16:41.957Z,28.00
2022-09-06T19:19:09.835Z,27.95
2022-09-06T19:21:41.438Z,27.91
2022-09-06T19:24:10.211Z,27.86
2022-09-06T19:26:40.085Z,27.82
2022-09-06T19:29:11.126Z,27.79
2022-09-06T19:31:38.842Z,27.75
2022-09-06T19:34:06.092Z,27.72
2022-09-06T19:36:32.982Z,27.69
2022-09-06T19:39:04.195Z,27.65
2022-09-06T19:41:33.947Z,27.61
2022-09-06T19:44:01.657Z,27.56
2022-09-06T19:46:28.313Z,27.52
2022-09-06T19:48:58.338Z,27.48
2022-09-06T19:51:25.007Z,27.45
2022-09-06T19:53:54.604Z,27.41
2022-09-06T19:56:26.793Z,27.38
2022-09-06T19:58:58.345Z,27.35
2022-09-06T20:01:32.090Z,27.32
2022-09-06T20:04:00.791Z,27.26
2022-09-06T20:06:27.661Z,27.22
2022-09-06T20:08:56.451Z,27.14
2022-09-06T20:11:25.962Z,27.09
2022-09-06T20:13:52.822Z,27.01
2022-09-06T20:16:20.955Z,26.93
2022-09-06T20:18:48.372Z,26.84
2022-09-06T20:21:17.740Z,26.77
2022-09-06T20:23:49.349Z,26.71
2022-09-06T20:26:16.614Z,26.63
2022-09-06T20:28:44.173Z,26.56
2022-09-06T20:31:20.538Z,26.51
2022-09-06T20:33:49.849Z,26.45
2022-09-06T20:36:18.196Z,26.41
2022-09-06T20:38:46.533Z,26.37
2022-09-06T20:41:17.285Z,26.34
2022-09-06T20:43:43.804Z,26.28
2022-09-06T20:46:14.578Z,26.24
2022-09-06T20:48:44.662Z,26.20
2022-09-06T20:51:23.412Z,26.18
2022-09-06T20:53:58.054Z,26.14
2022-09-06T20:56:28.052Z,26.11
2022-09-06T20:58:57.269Z,26.07
2022-09-06T21:01:25.558Z,26.04
2022-09-06T21:03:58.402Z,26.03
2022-09-06T21:06:27.195Z,26.01
2022-09-06T21:08:55.150Z,25.98
2022-09-06T21:11:21.906Z,25.97
2022-09-06T21:13:53.285Z,25.96
2022-09-06T21:16:24.236Z,25.92
2022-09-06T21:19:00.155Z,25.91
2022-09-06T21:21:28.535Z,25.88
2022-09-06T21:23:55.375Z,25.86
2022-09-06T21:26:22.631Z,25.82
2022-09-06T21:28:49.869Z,25.80
2022-09-06T21:31:24.809Z,25.77
2022-09-06T21:33:54.106Z,25.75
2022-09-06T21:36:29.292Z,25.71
2022-09-06T21:38:59.057Z,25.68
2022-09-06T21:41:26.953Z,25.65
2022-09-06T21:43:56.198Z,25.60
2022-09-06T21:46:27.804Z,25.57
2022-09-06T21:48:56.991Z,25.54
2022-09-06T21:51:29.002Z,25.52
2022-09-06T21:53:57.151Z,25.48
2022-09-06T21:56:24.260Z,25.47
2022-09-06T21:58:52.860Z,25.43
2022-09-06T22:01:19.579Z,25.39
2022-09-06T22:03:46.355Z,25.36
2022-09-06T22:06:18.449Z,25.33
2022-09-06T22:08:45.402Z,25.30
2022-09-06T22:11:12.929Z,25.28
2022-09-06T22:13:40.283Z,25.26
2022-09-06T22:16:08.343Z,25.26
2022-09-06T22:18:35.470Z,25.25
2022-09-06T22:21:11.707Z,25.25
2022-09-06T22:23:39.202Z,25.23
2022-09-06T22:26:12.898Z,25.25
2022-09-06T22:28:40.204Z,25.25
2022-09-06T22:31:07.778Z,25.23
2022-09-06T22:33:35.026Z,25.23
2022-09-06T22:36:01.819Z,25.20
2022-09-06T22:38:29.592Z,25.18
2022-09-06T22:40:57.220Z,25.17
2022-09-06T22:43:23.953Z,25.14
2022-09-06T22:45:52.105Z,25.12
2022-09-06T22:48:19.182Z,25.10
2022-09-06T22:50:45.690Z,25.09
2022-09-06T22:53:49.557Z,25.09
2022-09-06T22:56:16.461Z,25.08
2022-09-06T22:58:43.170Z,25.06
2022-09-06T23:01:15.256Z,25.07
2022-09-06T23:03:42.778Z,25.06
2022-09-06T23:06:09.942Z,25.06
2022-09-06T23:08:37.973Z,25.06
2022-09-06T23:11:13.983Z,25.08
2022-09-06T23:13:44.543Z,25.10
2022-09-06T23:16:19.198Z,25.13
2022-09-06T23:18:46.534Z,25.16
2022-09-06T23:21:19.669Z,25.19
2022-09-06T23:23:47.478Z,25.21
2022-09-06T23:26:27.299Z,25.24
2022-09-06T23:28:56.922Z,25.27
2022-09-06T23:31:28.607Z,25.28
2022-09-06T23:33:57.261Z,25.29
2022-09-06T23:36:24.336Z,25.30
2022-09-06T23:38:51.332Z,25.31
2022-09-06T23:41:18.140Z,25.32
2022-09-06T23:43:51.066Z,25.36
2022-09-06T23:46:17.760Z,25.38
2022-09-06T23:48:44.444Z,25.39
2022-09-06T23:51:11.972Z,25.42
2022-09-06T23:53:39.235Z,25.44
2022-09-06T23:56:05.937Z,25.47
2022-09-06T23:58:32.953Z,25.48
